CheckWX is a tool to help pilots better visualize weather data.  It is not intended as a substitute for an official pre-flight weather briefing.

20:35:41 UTC

6B0 METAR
Middlebury State Airport
Middlebury, Vermont, USA
Current

21 mins ago

K6B0 182015Z AUTO 33009G15KT 4SM -SN BKN017 BKN022 OVC032 M10/M13 A2999 RMK AO2 T10981130
Observed
Feb-18 @ 20:15 UTC
Wind
  • 330° at 9 KTS
  • Gusting to 15 KTS
Visibility
4 SM
Flight Rules
MVFR
Conditions
Light Snow
Cloud Levels
  • Broken at 1,700' AGL
  • Broken at 2,200' AGL
  • Overcast at 3,200' AGL
Temperature
-10°C / 14°F
Dewpoint
-13°C / 9°F
Humidity
79%
Altimeter
29.99" Hg
Pressure
1015.62 hPa
Previous

41 mins ago

K6B0 181955Z AUTO 34008KT 5SM -SN SCT012 BKN017 OVC033 M09/M13 A2997 RMK AO2 T10951131
Observed
Feb-18 @ 19:55 UTC
Wind
  • 340° at 8 KTS
Visibility
5 SM
Flight Rules
MVFR
Conditions
Light Snow
Cloud Levels
  • Scattered at 1,200' AGL
  • Broken at 1,700' AGL
  • Overcast at 3,300' AGL
Temperature
-10°C / 14°F
Dewpoint
-13°C / 9°F
Humidity
79%
Altimeter
29.97" Hg
Pressure
1014.92 hPa
Previous

1 hour ago

K6B0 181935Z AUTO 34007G14KT 4SM -SN BKN012 BKN020 OVC025 M10/M13 A2997 RMK AO2 T10971131
Observed
Feb-18 @ 19:35 UTC
Wind
  • 340° at 7 KTS
  • Gusting to 14 KTS
Visibility
4 SM
Flight Rules
MVFR
Conditions
Light Snow
Cloud Levels
  • Broken at 1,200' AGL
  • Broken at 2,000' AGL
  • Overcast at 2,500' AGL
Temperature
-10°C / 14°F
Dewpoint
-13°C / 9°F
Humidity
79%
Altimeter
29.97" Hg
Pressure
1014.92 hPa